Strona główna
METAR-TAF:

METAR-TAF

Lotnisko :

Seyresse

Dax, Francja

Szerokość geograficzna: 43-41N, Długość geograficzna: 001-04W, wysokość: 32 m

Aktualna obserwacja pogody

Raport powstał 40 minut temu, godzina 00:00 UTC
Wiatr 3 kt z kierunków zmiennych
Temperatura 9°C
Wilgotność 93%
Ciśnienie 1014 hPa
Widzialność: 5000 m

METAR: LFBY 270000Z AUTO VRB03KT 5000 // NSC 09/08 Q1014

czas: 01:40 (00:40 UTC)

Prognoza

Raport powstał 16 godziny i 40 minut temu, godzina 08:00 UTC
Prognoza ważna od 26 godzina 09 UTC do 26 godzina 18 UTC
Wiatr 5 kt od wschód
Widzialność: 7000 m

TAF: LFBY 260800Z 2609/2618 08005KT 7000 NSC

Obserwacja i prognoza pogody dla ponad 4000 lotnisk (raport METAR i TAF).

Dostępne stacje oznaczono żółtymi i czerwonymi punktami na mapie.

Najedź kursorem aby zobaczyć nazwę stacji.

Kliknij aby zobaczyć obserwacje i prognozy pogody.

Aby zmienić mapę: kliknij na zielony przycisk z czarnym krzyżykiem, aby powiększyć; na zielony przycisk z myślnikiem, aby pomniejszyć; na zielone strzałki, aby przejść do map sąsiednich.


METAR-TAF: